sensor_id;sensor_type;location;lat;lon;timestamp;pressure;altitude;pressure_sealevel;temperature;humidity
49397;BME280;35615;41.410;2.194;2022-08-19T00:01:59;101508.66;;;25.86;49.72
49397;BME280;35615;41.410;2.194;2022-08-19T00:04:30;101505.16;;;25.84;49.45
49397;BME280;35615;41.410;2.194;2022-08-19T00:07:02;101505.19;;;25.81;49.70
49397;BME280;35615;41.410;2.194;2022-08-19T00:09:33;101507.72;;;25.90;49.36
49397;BME280;35615;41.410;2.194;2022-08-19T00:12:01;101502.53;;;25.81;49.46
49397;BME280;35615;41.410;2.194;2022-08-19T00:14:29;101503.44;;;25.78;49.44
49397;BME280;35615;41.410;2.194;2022-08-19T00:16:59;101496.28;;;25.87;49.60
49397;BME280;35615;41.410;2.194;2022-08-19T00:19:27;101493.50;;;25.97;49.20
49397;BME280;35615;41.410;2.194;2022-08-19T00:21:54;101492.72;;;25.89;49.13
49397;BME280;35615;41.410;2.194;2022-08-19T00:24:24;101494.59;;;25.81;49.00
49397;BME280;35615;41.410;2.194;2022-08-19T00:26:51;101497.25;;;25.80;48.90
49397;BME280;35615;41.410;2.194;2022-08-19T00:29:24;101505.22;;;25.78;48.85
49397;BME280;35615;41.410;2.194;2022-08-19T00:31:51;101507.03;;;25.76;48.71
49397;BME280;35615;41.410;2.194;2022-08-19T00:34:22;101512.34;;;25.71;48.71
49397;BME280;35615;41.410;2.194;2022-08-19T00:36:49;101511.25;;;25.89;48.58
49397;BME280;35615;41.410;2.194;2022-08-19T00:39:16;101501.66;;;25.81;48.20
49397;BME280;35615;41.410;2.194;2022-08-19T00:41:44;101498.94;;;25.87;48.26
49397;BME280;35615;41.410;2.194;2022-08-19T00:44:19;101502.44;;;25.89;48.29
49397;BME280;35615;41.410;2.194;2022-08-19T00:46:53;101501.50;;;25.93;48.31
49397;BME280;35615;41.410;2.194;2022-08-19T00:52:14;101493.53;;;25.93;47.85
49397;BME280;35615;41.410;2.194;2022-08-19T00:54:42;101489.09;;;25.96;48.18
49397;BME280;35615;41.410;2.194;2022-08-19T00:57:32;101486.38;;;26.01;47.73
49397;BME280;35615;41.410;2.194;2022-08-19T01:00:06;101481.13;;;25.98;47.70
49397;BME280;35615;41.410;2.194;2022-08-19T01:02:40;101482.91;;;25.97;47.79
49397;BME280;35615;41.410;2.194;2022-08-19T01:05:16;101472.56;;;25.79;48.29
49397;BME280;35615;41.410;2.194;2022-08-19T01:07:47;101470.81;;;25.78;48.74
49397;BME280;35615;41.410;2.194;2022-08-19T01:10:17;101471.72;;;25.77;48.50
49397;BME280;35615;41.410;2.194;2022-08-19T01:12:46;101469.72;;;25.93;47.75
49397;BME280;35615;41.410;2.194;2022-08-19T01:15:19;101473.41;;;25.81;47.34
49397;BME280;35615;41.410;2.194;2022-08-19T01:17:47;101470.66;;;25.89;48.13
49397;BME280;35615;41.410;2.194;2022-08-19T01:20:19;101467.19;;;25.85;47.76
49397;BME280;35615;41.410;2.194;2022-08-19T01:22:53;101476.06;;;25.81;48.65
49397;BME280;35615;41.410;2.194;2022-08-19T01:25:38;101480.44;;;25.85;47.67
49397;BME280;35615;41.410;2.194;2022-08-19T01:28:06;101474.47;;;25.66;48.49
49397;BME280;35615;41.410;2.194;2022-08-19T01:30:37;101471.03;;;25.58;49.05
49397;BME280;35615;41.410;2.194;2022-08-19T01:33:10;101468.47;;;25.52;49.57
49397;BME280;35615;41.410;2.194;2022-08-19T01:35:38;101463.19;;;25.52;49.24
49397;BME280;35615;41.410;2.194;2022-08-19T01:38:10;101462.44;;;25.41;50.46
49397;BME280;35615;41.410;2.194;2022-08-19T01:40:46;101470.50;;;25.30;50.18
49397;BME280;35615;41.410;2.194;2022-08-19T01:43:17;101463.38;;;25.35;50.60
49397;BME280;35615;41.410;2.194;2022-08-19T01:45:47;101473.06;;;25.35;50.65
49397;BME280;35615;41.410;2.194;2022-08-19T01:48:16;101474.84;;;25.34;50.81
49397;BME280;35615;41.410;2.194;2022-08-19T01:50:43;101465.22;;;25.27;51.22
49397;BME280;35615;41.410;2.194;2022-08-19T01:53:11;101469.69;;;25.22;51.34
49397;BME280;35615;41.410;2.194;2022-08-19T01:55:41;101466.19;;;25.22;51.24
49397;BME280;35615;41.410;2.194;2022-08-19T01:58:16;101474.03;;;25.26;51.42
49397;BME280;35615;41.410;2.194;2022-08-19T02:00:47;101475.81;;;25.29;51.20
49397;BME280;35615;41.410;2.194;2022-08-19T02:03:15;101473.16;;;25.27;51.24
49397;BME280;35615;41.410;2.194;2022-08-19T02:05:44;101470.56;;;25.23;51.26
49397;BME280;35615;41.410;2.194;2022-08-19T02:08:13;101470.69;;;25.12;51.66
49397;BME280;35615;41.410;2.194;2022-08-19T02:10:43;101475.94;;;25.13;51.68
49397;BME280;35615;41.410;2.194;2022-08-19T02:13:12;101484.00;;;24.98;51.51
49397;BME280;35615;41.410;2.194;2022-08-19T02:15:40;101482.34;;;24.88;52.25
49397;BME280;35615;41.410;2.194;2022-08-19T02:18:08;101480.63;;;24.84;52.29
49397;BME280;35615;41.410;2.194;2022-08-19T02:20:38;101478.84;;;24.83;52.95
49397;BME280;35615;41.410;2.194;2022-08-19T02:23:07;101467.28;;;24.98;52.25
49397;BME280;35615;41.410;2.194;2022-08-19T02:25:45;101467.31;;;24.91;51.72
49397;BME280;35615;41.410;2.194;2022-08-19T02:28:16;101466.41;;;24.97;51.65
49397;BME280;35615;41.410;2.194;2022-08-19T02:30:46;101476.16;;;24.89;52.42
49397;BME280;35615;41.410;2.194;2022-08-19T02:33:15;101469.13;;;24.88;52.06
49397;BME280;35615;41.410;2.194;2022-08-19T02:35:46;101478.00;;;24.84;52.03
49397;BME280;35615;41.410;2.194;2022-08-19T02:38:14;101474.44;;;24.86;51.84
49397;BME280;35615;41.410;2.194;2022-08-19T02:41:00;101475.34;;;24.84;52.17
49397;BME280;35615;41.410;2.194;2022-08-19T02:43:30;101476.28;;;24.75;52.22
49397;BME280;35615;41.410;2.194;2022-08-19T02:46:00;101478.09;;;24.69;52.37
49397;BME280;35615;41.410;2.194;2022-08-19T02:48:28;101478.13;;;24.66;52.47
49397;BME280;35615;41.410;2.194;2022-08-19T02:50:55;101479.03;;;24.60;52.59
49397;BME280;35615;41.410;2.194;2022-08-19T02:53:25;101475.53;;;24.61;52.83
49397;BME280;35615;41.410;2.194;2022-08-19T02:55:53;101477.28;;;24.59;53.10
49397;BME280;35615;41.410;2.194;2022-08-19T02:58:24;101483.53;;;24.53;52.86
49397;BME280;35615;41.410;2.194;2022-08-19T03:00:55;101489.72;;;24.51;53.01
49397;BME280;35615;41.410;2.194;2022-08-19T03:03:23;101487.06;;;24.48;53.52
49397;BME280;35615;41.410;2.194;2022-08-19T03:05:51;101491.56;;;24.40;53.28
49397;BME280;35615;41.410;2.194;2022-08-19T03:08:24;101493.28;;;24.44;53.27
49397;BME280;35615;41.410;2.194;2022-08-19T03:10:51;101495.06;;;24.37;53.14
49397;BME280;35615;41.410;2.194;2022-08-19T03:13:20;101491.59;;;24.32;52.80
49397;BME280;35615;41.410;2.194;2022-08-19T03:15:47;101496.03;;;24.22;52.97
49397;BME280;35615;41.410;2.194;2022-08-19T03:18:15;101496.00;;;24.30;53.20
49397;BME280;35615;41.410;2.194;2022-08-19T03:20:45;101499.50;;;24.26;53.16
49397;BME280;35615;41.410;2.194;2022-08-19T03:23:14;101500.41;;;24.29;53.31
49397;BME280;35615;41.410;2.194;2022-08-19T03:25:45;101497.75;;;24.28;52.88
49397;BME280;35615;41.410;2.194;2022-08-19T03:28:28;101499.50;;;24.26;52.99
49397;BME280;35615;41.410;2.194;2022-08-19T03:31:10;101500.41;;;24.23;52.90
49397;BME280;35615;41.410;2.194;2022-08-19T03:33:59;101513.59;;;24.29;52.56
49397;BME280;35615;41.410;2.194;2022-08-19T03:36:27;101515.44;;;24.17;52.88
49397;BME280;35615;41.410;2.194;2022-08-19T03:38:57;101514.47;;;24.25;52.11
49397;BME280;35615;41.410;2.194;2022-08-19T03:41:31;101520.69;;;24.20;52.34
49397;BME280;35615;41.410;2.194;2022-08-19T03:44:14;101506.56;;;24.24;52.16
49397;BME280;35615;41.410;2.194;2022-08-19T03:46:46;101503.97;;;24.15;52.80
49397;BME280;35615;41.410;2.194;2022-08-19T03:49:14;101512.78;;;24.15;53.17
49397;BME280;35615;41.410;2.194;2022-08-19T03:51:45;101507.53;;;24.11;52.49
49397;BME280;35615;41.410;2.194;2022-08-19T03:54:14;101503.13;;;24.11;52.59
49397;BME280;35615;41.410;2.194;2022-08-19T03:56:42;101505.78;;;24.11;52.67
49397;BME280;35615;41.410;2.194;2022-08-19T03:59:16;101510.16;;;24.14;52.47
49397;BME280;35615;41.410;2.194;2022-08-19T04:01:44;101514.69;;;23.87;52.44
49397;BME280;35615;41.410;2.194;2022-08-19T04:04:12;101506.69;;;24.02;50.54
49397;BME280;35615;41.410;2.194;2022-08-19T04:06:40;101495.25;;;24.07;49.36
49397;BME280;35615;41.410;2.194;2022-08-19T04:09:10;101489.09;;;24.08;48.96
49397;BME280;35615;41.410;2.194;2022-08-19T04:11:45;101492.59;;;24.05;48.53
49397;BME280;35615;41.410;2.194;2022-08-19T04:14:19;101490.75;;;24.21;48.19
49397;BME280;35615;41.410;2.194;2022-08-19T04:16:47;101506.63;;;24.15;49.22
49397;BME280;35615;41.410;2.194;2022-08-19T04:19:16;101512.69;;;24.27;49.53
49397;BME280;35615;41.410;2.194;2022-08-19T04:21:46;101514.47;;;24.34;49.15
49397;BME280;35615;41.410;2.194;2022-08-19T04:24:17;101521.47;;;24.39;49.19
49397;BME280;35615;41.410;2.194;2022-08-19T04:26:45;101533.84;;;24.24;49.14
49397;BME280;35615;41.410;2.194;2022-08-19T04:29:18;101532.91;;;24.38;49.08
49397;BME280;35615;41.410;2.194;2022-08-19T04:31:49;101538.22;;;24.41;49.13
49397;BME280;35615;41.410;2.194;2022-08-19T04:34:19;101539.03;;;24.47;48.89
49397;BME280;35615;41.410;2.194;2022-08-19T04:36:52;101540.84;;;24.42;48.63
49397;BME280;35615;41.410;2.194;2022-08-19T04:39:23;101539.09;;;24.41;48.80
49397;BME280;35615;41.410;2.194;2022-08-19T04:42:17;101547.94;;;24.23;47.95
49397;BME280;35615;41.410;2.194;2022-08-19T04:45:08;101541.78;;;24.32;47.74
49397;BME280;35615;41.410;2.194;2022-08-19T04:47:39;101534.66;;;24.39;47.56
49397;BME280;35615;41.410;2.194;2022-08-19T04:50:24;101548.81;;;24.28;47.98
49397;BME280;35615;41.410;2.194;2022-08-19T04:52:51;101537.38;;;24.31;47.78
49397;BME280;35615;41.410;2.194;2022-08-19T04:55:19;101540.03;;;24.31;46.94
49397;BME280;35615;41.410;2.194;2022-08-19T04:57:47;101546.22;;;24.16;46.63
49397;BME280;35615;41.410;2.194;2022-08-19T05:00:14;101545.31;;;24.22;46.38
49397;BME280;35615;41.410;2.194;2022-08-19T05:02:42;101552.31;;;24.33;46.36
49397;BME280;35615;41.410;2.194;2022-08-19T05:05:09;101555.84;;;24.34;46.30
49397;BME280;35615;41.410;2.194;2022-08-19T05:07:36;101554.94;;;24.41;46.32
49397;BME280;35615;41.410;2.194;2022-08-19T05:10:05;101563.69;;;24.45;46.35
49397;BME280;35615;41.410;2.194;2022-08-19T05:12:34;101568.09;;;24.50;46.13
49397;BME280;35615;41.410;2.194;2022-08-19T05:15:04;101579.59;;;24.37;46.67
49397;BME280;35615;41.410;2.194;2022-08-19T05:17:32;101584.00;;;24.35;47.14
49397;BME280;35615;41.410;2.194;2022-08-19T05:20:05;101584.00;;;24.35;47.00
49397;BME280;35615;41.410;2.194;2022-08-19T05:22:54;101584.03;;;24.30;47.42
49397;BME280;35615;41.410;2.194;2022-08-19T05:25:21;101589.28;;;24.26;47.81
49397;BME280;35615;41.410;2.194;2022-08-19T05:27:49;101587.56;;;24.31;47.73
49397;BME280;35615;41.410;2.194;2022-08-19T05:30:17;101594.56;;;24.27;47.62
49397;BME280;35615;41.410;2.194;2022-08-19T05:33:10;101591.94;;;24.24;47.12
49397;BME280;35615;41.410;2.194;2022-08-19T05:35:38;101592.84;;;24.23;47.30
49397;BME280;35615;41.410;2.194;2022-08-19T05:38:07;101597.19;;;24.27;46.75
49397;BME280;35615;41.410;2.194;2022-08-19T05:40:35;101601.63;;;24.24;46.77
49397;BME280;35615;41.410;2.194;2022-08-19T05:43:06;101597.22;;;24.29;46.74
49397;BME280;35615;41.410;2.194;2022-08-19T05:45:40;101609.56;;;24.16;46.69
49397;BME280;35615;41.410;2.194;2022-08-19T05:48:12;101621.94;;;24.17;46.50
49397;BME280;35615;41.410;2.194;2022-08-19T05:50:41;101629.00;;;24.09;46.25
49397;BME280;35615;41.410;2.194;2022-08-19T05:53:09;101628.94;;;24.21;47.03
49397;BME280;35615;41.410;2.194;2022-08-19T05:55:36;101628.91;;;24.29;47.07
49397;BME280;35615;41.410;2.194;2022-08-19T05:58:05;101627.13;;;24.26;47.00
49397;BME280;35615;41.410;2.194;2022-08-19T06:00:36;101630.69;;;24.21;47.01
49397;BME280;35615;41.410;2.194;2022-08-19T06:03:04;101636.84;;;24.24;47.03
49397;BME280;35615;41.410;2.194;2022-08-19T06:05:38;101651.81;;;24.22;47.69
49397;BME280;35615;41.410;2.194;2022-08-19T06:08:17;101645.69;;;24.11;47.44
49397;BME280;35615;41.410;2.194;2022-08-19T06:10:45;101653.56;;;24.25;47.42
49397;BME280;35615;41.410;2.194;2022-08-19T06:13:12;101650.06;;;24.32;47.26
49397;BME280;35615;41.410;2.194;2022-08-19T06:15:39;101660.59;;;24.40;47.36
49397;BME280;35615;41.410;2.194;2022-08-19T06:18:08;101652.69;;;24.33;47.75
49397;BME280;35615;41.410;2.194;2022-08-19T06:20:35;101650.91;;;24.36;47.31
49397;BME280;35615;41.410;2.194;2022-08-19T06:23:21;101639.44;;;24.38;47.32
49397;BME280;35615;41.410;2.194;2022-08-19T06:25:50;101643.88;;;24.33;47.17
49397;BME280;35615;41.410;2.194;2022-08-19T06:28:18;101641.25;;;24.28;47.49
49397;BME280;35615;41.410;2.194;2022-08-19T06:30:45;101641.22;;;24.36;47.07
49397;BME280;35615;41.410;2.194;2022-08-19T06:33:13;101629.78;;;24.37;46.90
49397;BME280;35615;41.410;2.194;2022-08-19T06:35:41;101631.56;;;24.33;46.74
49397;BME280;35615;41.410;2.194;2022-08-19T06:38:08;101622.75;;;24.34;46.73
49397;BME280;35615;41.410;2.194;2022-08-19T06:40:42;101625.41;;;24.33;46.25
49397;BME280;35615;41.410;2.194;2022-08-19T06:43:10;101635.09;;;24.28;46.35
49397;BME280;35615;41.410;2.194;2022-08-19T06:45:39;101627.22;;;24.17;46.24
49397;BME280;35615;41.410;2.194;2022-08-19T06:48:06;101632.47;;;24.19;46.08
49397;BME280;35615;41.410;2.194;2022-08-19T06:50:34;101635.06;;;24.25;46.11
49397;BME280;35615;41.410;2.194;2022-08-19T06:53:08;101639.50;;;24.15;45.97
49397;BME280;35615;41.410;2.194;2022-08-19T06:55:35;101638.59;;;24.27;46.01
49397;BME280;35615;41.410;2.194;2022-08-19T06:58:04;101643.00;;;24.32;45.96
49397;BME280;35615;41.410;2.194;2022-08-19T07:00:32;101643.00;;;24.29;46.16
49397;BME280;35615;41.410;2.194;2022-08-19T07:03:00;101640.31;;;24.39;45.93
49397;BME280;35615;41.410;2.194;2022-08-19T07:05:40;101644.75;;;24.41;45.56
49397;BME280;35615;41.410;2.194;2022-08-19T07:08:12;101658.72;;;24.57;45.66
49397;BME280;35615;41.410;2.194;2022-08-19T07:10:45;101667.53;;;24.57;45.23
49397;BME280;35615;41.410;2.194;2022-08-19T07:13:13;101670.25;;;24.44;45.45
49397;BME280;35615;41.410;2.194;2022-08-19T07:15:40;101672.88;;;24.45;45.39
49397;BME280;35615;41.410;2.194;2022-08-19T07:18:08;101674.59;;;24.61;45.60
49397;BME280;35615;41.410;2.194;2022-08-19T07:20:38;101675.44;;;24.63;45.71
49397;BME280;35615;41.410;2.194;2022-08-19T07:23:08;101684.25;;;24.64;45.73
49397;BME280;35615;41.410;2.194;2022-08-19T07:25:42;101687.78;;;24.60;45.59
49397;BME280;35615;41.410;2.194;2022-08-19T07:28:16;101680.69;;;24.74;45.46
49397;BME280;35615;41.410;2.194;2022-08-19T07:30:51;101693.91;;;24.70;45.83
49397;BME280;35615;41.410;2.194;2022-08-19T07:33:18;101694.72;;;24.81;45.42
49397;BME280;35615;41.410;2.194;2022-08-19T07:35:46;101704.38;;;24.88;45.27
49397;BME280;35615;41.410;2.194;2022-08-19T07:38:15;101708.88;;;24.72;44.99
49397;BME280;35615;41.410;2.194;2022-08-19T07:40:44;101694.75;;;24.75;45.29
49397;BME280;35615;41.410;2.194;2022-08-19T07:43:13;101691.16;;;24.88;45.14
49397;BME280;35615;41.410;2.194;2022-08-19T07:45:44;101694.69;;;24.88;45.06
49397;BME280;35615;41.410;2.194;2022-08-19T07:48:12;101689.38;;;24.90;45.26
49397;BME280;35615;41.410;2.194;2022-08-19T07:50:41;101688.47;;;24.94;45.45
49397;BME280;35615;41.410;2.194;2022-08-19T07:53:08;101689.34;;;24.98;45.05
49397;BME280;35615;41.410;2.194;2022-08-19T07:55:36;101689.34;;;25.05;45.38
49397;BME280;35615;41.410;2.194;2022-08-19T07:58:12;101697.22;;;25.10;45.20
49397;BME280;35615;41.410;2.194;2022-08-19T08:00:42;101698.13;;;25.09;44.94
49397;BME280;35615;41.410;2.194;2022-08-19T08:03:10;101698.94;;;25.15;45.12
49397;BME280;35615;41.410;2.194;2022-08-19T08:05:41;101689.13;;;25.31;44.95
49397;BME280;35615;41.410;2.194;2022-08-19T08:08:27;101686.44;;;25.39;45.03
49397;BME280;35615;41.410;2.194;2022-08-19T08:11:14;101682.78;;;25.54;44.42
49397;BME280;35615;41.410;2.194;2022-08-19T08:13:44;101687.97;;;25.66;43.85
49397;BME280;35615;41.410;2.194;2022-08-19T08:16:26;101694.97;;;25.71;43.79
49397;BME280;35615;41.410;2.194;2022-08-19T08:18:57;101692.16;;;25.90;43.42
49397;BME280;35615;41.410;2.194;2022-08-19T08:21:24;101687.31;;;26.27;42.86
49397;BME280;35615;41.410;2.194;2022-08-19T08:23:51;101689.66;;;26.56;42.71
49397;BME280;35615;41.410;2.194;2022-08-19T08:26:23;101690.59;;;26.52;41.85
49397;BME280;35615;41.410;2.194;2022-08-19T08:28:54;101686.53;;;26.89;41.58
49397;BME280;35615;41.410;2.194;2022-08-19T08:31:24;101691.63;;;27.08;41.43
49397;BME280;35615;41.410;2.194;2022-08-19T08:33:51;101681.22;;;27.48;40.90
49397;BME280;35615;41.410;2.194;2022-08-19T08:36:18;101676.44;;;27.70;39.79
49397;BME280;35615;41.410;2.194;2022-08-19T08:38:46;101679.13;;;28.16;39.64
49397;BME280;35615;41.410;2.194;2022-08-19T08:43:58;101683.03;;;28.82;38.85
49397;BME280;35615;41.410;2.194;2022-08-19T08:46:51;101675.75;;;28.51;36.90
49397;BME280;35615;41.410;2.194;2022-08-19T08:49:33;101674.94;;;29.25;36.42
49397;BME280;35615;41.410;2.194;2022-08-19T08:52:10;101669.41;;;29.34;36.32
49397;BME280;35615;41.410;2.194;2022-08-19T08:54:43;101669.56;;;29.64;35.71
49397;BME280;35615;41.410;2.194;2022-08-19T08:57:35;101662.69;;;29.88;34.58
49397;BME280;35615;41.410;2.194;2022-08-19T09:00:12;101661.50;;;30.30;34.89
49397;BME280;35615;41.410;2.194;2022-08-19T09:02:43;101662.25;;;30.65;34.85
49397;BME280;35615;41.410;2.194;2022-08-19T09:05:16;101665.19;;;30.56;34.00
49397;BME280;35615;41.410;2.194;2022-08-19T09:08:08;101662.84;;;30.75;32.62
49397;BME280;35615;41.410;2.194;2022-08-19T09:10:54;101659.56;;;31.22;32.38
49397;BME280;35615;41.410;2.194;2022-08-19T09:16:21;101660.41;;;31.76;32.35
49397;BME280;35615;41.410;2.194;2022-08-19T09:19:05;101662.53;;;32.15;31.57
49397;BME280;35615;41.410;2.194;2022-08-19T09:21:34;101665.31;;;32.36;31.55
49397;BME280;35615;41.410;2.194;2022-08-19T09:24:02;101654.47;;;32.63;30.68
49397;BME280;35615;41.410;2.194;2022-08-19T09:26:34;101652.72;;;32.85;30.78
49397;BME280;35615;41.410;2.194;2022-08-19T09:29:17;101642.38;;;32.98;30.00
49397;BME280;35615;41.410;2.194;2022-08-19T09:31:44;101651.13;;;33.23;29.90
49397;BME280;35615;41.410;2.194;2022-08-19T09:34:13;101651.50;;;33.36;29.98
49397;BME280;35615;41.410;2.194;2022-08-19T09:36:48;101657.09;;;33.30;28.98
49397;BME280;35615;41.410;2.194;2022-08-19T09:39:21;101653.47;;;33.53;28.44
49397;BME280;35615;41.410;2.194;2022-08-19T09:41:48;101651.72;;;33.52;28.33
49397;BME280;35615;41.410;2.194;2022-08-19T09:44:17;101638.03;;;33.78;27.73
49397;BME280;35615;41.410;2.194;2022-08-19T09:46:45;101639.22;;;34.12;27.46
49397;BME280;35615;41.410;2.194;2022-08-19T09:49:15;101643.41;;;34.38;28.05
49397;BME280;35615;41.410;2.194;2022-08-19T09:51:44;101646.47;;;34.49;27.70
49397;BME280;35615;41.410;2.194;2022-08-19T09:54:17;101653.59;;;34.67;27.55
49397;BME280;35615;41.410;2.194;2022-08-19T09:56:52;101645.56;;;34.67;26.17
49397;BME280;35615;41.410;2.194;2022-08-19T09:59:20;101645.75;;;35.01;26.99
49397;BME280;35615;41.410;2.194;2022-08-19T10:01:47;101642.44;;;35.13;27.08
49397;BME280;35615;41.410;2.194;2022-08-19T10:04:15;101648.44;;;35.35;26.60
49397;BME280;35615;41.410;2.194;2022-08-19T10:06:46;101638.09;;;34.93;25.23
49397;BME280;35615;41.410;2.194;2022-08-19T10:09:19;101640.47;;;35.34;25.08
49397;BME280;35615;41.410;2.194;2022-08-19T10:12:00;101646.44;;;33.91;26.29
49397;BME280;35615;41.410;2.194;2022-08-19T10:14:28;101641.84;;;32.66;28.02
49397;BME280;35615;41.410;2.194;2022-08-19T10:16:56;101645.28;;;33.56;26.67
49397;BME280;35615;41.410;2.194;2022-08-19T10:19:25;101647.25;;;33.93;27.58
49397;BME280;35615;41.410;2.194;2022-08-19T10:21:53;101649.34;;;34.63;26.95
49397;BME280;35615;41.410;2.194;2022-08-19T10:24:26;101639.47;;;34.45;26.83
49397;BME280;35615;41.410;2.194;2022-08-19T10:26:55;101644.88;;;34.25;25.91
49397;BME280;35615;41.410;2.194;2022-08-19T10:29:26;101643.66;;;34.88;25.36
49397;BME280;35615;41.410;2.194;2022-08-19T10:31:59;101632.22;;;35.02;24.35
49397;BME280;35615;41.410;2.194;2022-08-19T10:34:30;101631.78;;;35.11;24.80
49397;BME280;35615;41.410;2.194;2022-08-19T10:36:58;101631.63;;;35.32;24.45
49397;BME280;35615;41.410;2.194;2022-08-19T10:39:32;101636.53;;;35.58;24.43
49397;BME280;35615;41.410;2.194;2022-08-19T10:42:09;101632.97;;;35.58;24.64
49397;BME280;35615;41.410;2.194;2022-08-19T10:44:41;101635.63;;;35.42;25.80
49397;BME280;35615;41.410;2.194;2022-08-19T10:47:08;101633.94;;;35.57;25.24
49397;BME280;35615;41.410;2.194;2022-08-19T10:49:50;101637.63;;;35.89;25.28
49397;BME280;35615;41.410;2.194;2022-08-19T10:52:42;101631.59;;;36.01;24.82
49397;BME280;35615;41.410;2.194;2022-08-19T10:55:18;101627.91;;;35.34;25.37
49397;BME280;35615;41.410;2.194;2022-08-19T10:58:10;101635.72;;;35.21;25.45
49397;BME280;35615;41.410;2.194;2022-08-19T11:00:40;101631.25;;;35.74;25.13
49397;BME280;35615;41.410;2.194;2022-08-19T11:03:11;101639.06;;;35.09;26.27
49397;BME280;35615;41.410;2.194;2022-08-19T11:05:38;101633.09;;;35.39;26.12
49397;BME280;35615;41.410;2.194;2022-08-19T11:08:08;101633.00;;;34.30;26.16
49397;BME280;35615;41.410;2.194;2022-08-19T11:10:52;101625.03;;;34.66;25.49
49397;BME280;35615;41.410;2.194;2022-08-19T11:13:33;101620.69;;;34.64;25.87
49397;BME280;35615;41.410;2.194;2022-08-19T11:16:07;101625.28;;;34.79;25.64
49397;BME280;35615;41.410;2.194;2022-08-19T11:18:47;101621.56;;;34.64;26.53
49397;BME280;35615;41.410;2.194;2022-08-19T11:21:25;101622.84;;;34.93;25.96
49397;BME280;35615;41.410;2.194;2022-08-19T11:24:18;101619.22;;;34.94;26.31
49397;BME280;35615;41.410;2.194;2022-08-19T11:27:20;101628.34;;;35.44;27.03
49397;BME280;35615;41.410;2.194;2022-08-19T11:30:22;101625.47;;;35.82;26.25
49397;BME280;35615;41.410;2.194;2022-08-19T11:32:54;101625.78;;;35.93;26.55
49397;BME280;35615;41.410;2.194;2022-08-19T11:35:29;101630.56;;;36.03;26.20
49397;BME280;35615;41.410;2.194;2022-08-19T11:38:06;101624.25;;;36.04;26.20
49397;BME280;35615;41.410;2.194;2022-08-19T11:40:40;101617.38;;;35.99;26.29
49397;BME280;35615;41.410;2.194;2022-08-19T11:43:14;101622.59;;;36.18;26.17
49397;BME280;35615;41.410;2.194;2022-08-19T11:45:46;101613.75;;;36.31;25.58
49397;BME280;35615;41.410;2.194;2022-08-19T11:48:15;101613.50;;;36.36;26.03
49397;BME280;35615;41.410;2.194;2022-08-19T11:50:43;101609.44;;;36.76;25.63
49397;BME280;35615;41.410;2.194;2022-08-19T11:53:10;101613.88;;;36.61;25.97
49397;BME280;35615;41.410;2.194;2022-08-19T11:55:38;101616.47;;;36.94;25.07
49397;BME280;35615;41.410;2.194;2022-08-19T11:58:10;101625.16;;;36.68;25.38
49397;BME280;35615;41.410;2.194;2022-08-19T12:00:44;101612.03;;;36.78;25.05
49397;BME280;35615;41.410;2.194;2022-08-19T12:03:12;101614.41;;;36.52;25.70
49397;BME280;35615;41.410;2.194;2022-08-19T12:05:41;101618.63;;;35.92;26.80
49397;BME280;35615;41.410;2.194;2022-08-19T12:08:13;101620.16;;;36.13;26.50
49397;BME280;35615;41.410;2.194;2022-08-19T12:10:43;101627.47;;;36.27;26.65
49397;BME280;35615;41.410;2.194;2022-08-19T12:13:11;101646.44;;;35.92;27.12
49397;BME280;35615;41.410;2.194;2022-08-19T12:15:42;101640.75;;;35.64;27.41
49397;BME280;35615;41.410;2.194;2022-08-19T12:18:09;101652.25;;;35.31;27.63
49397;BME280;35615;41.410;2.194;2022-08-19T12:20:38;101660.28;;;34.78;28.51
49397;BME280;35615;41.410;2.194;2022-08-19T12:23:08;101662.25;;;34.74;29.28
49397;BME280;35615;41.410;2.194;2022-08-19T12:25:43;101659.00;;;34.49;30.15
49397;BME280;35615;41.410;2.194;2022-08-19T12:28:21;101657.88;;;34.90;29.10
49397;BME280;35615;41.410;2.194;2022-08-19T12:30:49;101653.66;;;35.04;29.10
49397;BME280;35615;41.410;2.194;2022-08-19T12:33:19;101651.47;;;34.36;30.34
49397;BME280;35615;41.410;2.194;2022-08-19T12:35:52;101653.75;;;34.27;29.73
49397;BME280;35615;41.410;2.194;2022-08-19T12:38:20;101643.97;;;34.26;30.15
49397;BME280;35615;41.410;2.194;2022-08-19T12:40:51;101652.13;;;34.23;30.33
49397;BME280;35615;41.410;2.194;2022-08-19T12:43:26;101644.84;;;34.64;29.80
49397;BME280;35615;41.410;2.194;2022-08-19T12:45:55;101648.06;;;35.08;29.67
49397;BME280;35615;41.410;2.194;2022-08-19T12:48:23;101645.50;;;34.88;28.88
49397;BME280;35615;41.410;2.194;2022-08-19T12:51:00;101635.22;;;34.60;30.56
49397;BME280;35615;41.410;2.194;2022-08-19T12:53:29;101637.56;;;34.85;29.48
49397;BME280;35615;41.410;2.194;2022-08-19T12:55:57;101632.97;;;35.06;28.82
49397;BME280;35615;41.410;2.194;2022-08-19T12:58:27;101634.66;;;34.89;29.46
49397;BME280;35615;41.410;2.194;2022-08-19T13:00:55;101638.25;;;35.07;29.03
49397;BME280;35615;41.410;2.194;2022-08-19T13:03:25;101640.78;;;35.10;29.03
49397;BME280;35615;41.410;2.194;2022-08-19T13:05:56;101653.34;;;33.97;30.00
49397;BME280;35615;41.410;2.194;2022-08-19T13:08:23;101639.88;;;34.36;29.50
49397;BME280;35615;41.410;2.194;2022-08-19T13:10:51;101627.69;;;34.49;29.19
49397;BME280;35615;41.410;2.194;2022-08-19T13:13:19;101636.09;;;34.60;29.41
49397;BME280;35615;41.410;2.194;2022-08-19T13:15:46;101634.09;;;34.64;29.22
49397;BME280;35615;41.410;2.194;2022-08-19T13:18:14;101638.38;;;34.68;29.80
49397;BME280;35615;41.410;2.194;2022-08-19T13:20:42;101632.81;;;34.54;29.93
49397;BME280;35615;41.410;2.194;2022-08-19T13:23:18;101630.75;;;34.21;29.51